Time;durP1;ratioP1;P1;durP2;ratioP2;P2;SDS_P1;SDS_P2;PMS_P1;PMS_P2;Temp;Humidity;BMP_temperature;BMP_pressure;BME280_temperature;BME280_humidity;BME280_pressure;Samples;Min_cycle;Max_cycle;Signal;HPM_P1;HPM_P2
2021/08/19 21:29:49;;;;;;;7.23;5.23;;;19.00;94.20;;;;;;5032744;28;20563;-68
2021/08/19 21:32:18;;;;;;;6.10;4.90;;;18.90;94.40;;;;;;5034081;28;20495;-68
2021/08/19 21:34:45;;;;;;;6.23;4.43;;;18.90;94.50;;;;;;5034046;28;20438;-68
2021/08/19 21:37:12;;;;;;;9.77;4.23;;;18.80;94.60;;;;;;5033325;28;20433;-68
2021/08/19 21:39:47;;;;;;;8.93;4.10;;;18.80;94.90;;;;;;5031930;28;20456;-68
2021/08/19 21:42:16;;;;;;;10.63;4.60;;;18.80;95.00;;;;;;5032879;28;20441;-72
2021/08/19 21:44:43;;;;;;;8.07;4.87;;;18.70;95.20;;;;;;5033100;28;20481;-67
2021/08/19 21:47:30;;;;;;;6.93;4.70;;;18.70;95.20;;;;;;5033843;28;20916;-68
2021/08/19 21:50:05;;;;;;;9.63;4.43;;;18.70;95.20;;;;;;5033986;28;20445;-68
2021/08/19 21:52:34;;;;;;;4.87;4.17;;;18.60;95.10;;;;;;5034173;28;20440;-68
2021/08/19 21:55:01;;;;;;;6.07;4.27;;;18.60;95.20;;;;;;5033773;28;20477;-68
2021/08/19 21:57:28;;;;;;;6.50;5.00;;;18.60;95.20;;;;;;5033704;28;20473;-68
2021/08/19 21:59:55;;;;;;;5.97;4.67;;;18.50;95.10;;;;;;5033676;28;20437;-67
2021/08/19 22:02:23;;;;;;;6.30;4.53;;;18.50;95.10;;;;;;5033197;28;20445;-68
2021/08/19 22:04:52;;;;;;;6.37;4.43;;;18.50;95.30;;;;;;5033672;28;20496;-68
2021/08/19 22:07:19;;;;;;;5.63;4.70;;;18.50;95.20;;;;;;5033234;28;20442;-68
2021/08/19 22:09:48;;;;;;;7.03;4.37;;;18.40;95.20;;;;;;5032996;28;20511;-68
2021/08/19 22:12:15;;;;;;;5.20;4.10;;;18.30;95.30;;;;;;5032430;28;20519;-68
2021/08/19 22:14:42;;;;;;;6.90;5.40;;;18.30;95.40;;;;;;5032587;28;20501;-68
2021/08/19 22:17:10;;;;;;;6.77;4.90;;;18.30;95.20;;;;;;5033285;28;20477;-68
2021/08/19 22:19:37;;;;;;;7.47;5.27;;;18.20;95.50;;;;;;5033225;28;20473;-70
2021/08/19 22:22:06;;;;;;;8.50;5.20;;;18.20;95.80;;;;;;5032640;28;20449;-68
2021/08/19 22:24:33;;;;;;;8.73;4.90;;;18.10;95.90;;;;;;5031609;28;20486;-68
2021/08/19 22:27:00;;;;;;;6.97;4.90;;;18.10;95.80;;;;;;5032134;28;20438;-68
2021/08/19 22:29:28;;;;;;;6.70;4.97;;;18.00;95.80;;;;;;5032580;28;20464;-68
2021/08/19 22:31:55;;;;;;;8.50;4.87;;;18.00;95.80;;;;;;5034015;28;20509;-68
2021/08/19 22:34:23;;;;;;;6.37;4.43;;;17.90;95.80;;;;;;5033363;28;20507;-68
2021/08/19 22:36:53;;;;;;;7.67;4.90;;;18.00;95.90;;;;;;5033280;28;20442;-68
2021/08/19 22:39:21;;;;;;;5.53;4.90;;;17.90;95.70;;;;;;5032013;28;20453;-68
2021/08/19 22:41:48;;;;;;;5.77;4.33;;;17.90;95.60;;;;;;5031595;28;20536;-68
2021/08/19 22:44:15;;;;;;;6.40;4.87;;;17.90;95.50;;;;;;5032421;28;20983;-68
2021/08/19 22:46:44;;;;;;;6.77;4.53;;;17.80;95.50;;;;;;5032218;28;20432;-70
2021/08/19 22:49:11;;;;;;;9.43;5.27;;;17.80;95.60;;;;;;5032519;28;20445;-68
2021/08/19 22:51:38;;;;;;;6.10;4.53;;;17.80;95.70;;;;;;5030912;28;20448;-68
2021/08/19 22:54:05;;;;;;;5.43;4.00;;;17.80;96.00;;;;;;5032252;28;20464;-68
2021/08/19 22:56:34;;;;;;;5.50;4.00;;;17.80;95.90;;;;;;5032833;28;20446;-69
2021/08/19 22:59:01;;;;;;;6.37;4.70;;;17.70;96.10;;;;;;5032507;28;20445;-72
2021/08/19 23:01:28;;;;;;;6.27;4.13;;;17.70;96.00;;;;;;5032672;28;20437;-68
2021/08/19 23:03:56;;;;;;;10.83;5.13;;;17.70;95.90;;;;;;5031339;28;20489;-67
2021/08/19 23:06:23;;;;;;;5.43;4.03;;;17.80;96.00;;;;;;5031893;28;20485;-68
2021/08/19 23:08:50;;;;;;;7.93;4.10;;;17.70;96.00;;;;;;5031858;28;20433;-68
2021/08/19 23:11:18;;;;;;;7.93;5.43;;;17.70;96.30;;;;;;5032108;28;20504;-68
2021/08/19 23:14:26;;;;;;;5.23;4.07;;;17.70;96.30;;;;;;5032009;28;20936;-68
2021/08/19 23:16:55;;;;;;;7.07;4.50;;;17.70;96.40;;;;;;5031884;28;20466;-70
2021/08/19 23:19:22;;;;;;;6.73;4.77;;;17.60;96.50;;;;;;5031190;28;20896;-68
2021/08/19 23:21:52;;;;;;;7.17;5.27;;;17.60;96.70;;;;;;5031847;28;20488;-68
2021/08/19 23:24:19;;;;;;;9.83;5.07;;;17.60;96.80;;;;;;5030800;28;20531;-70
2021/08/19 23:26:52;;;;;;;5.73;4.70;;;17.60;96.80;;;;;;5032211;28;20961;-68
2021/08/19 23:29:19;;;;;;;11.57;5.20;;;17.60;96.80;;;;;;5030629;28;20473;-68
2021/08/19 23:31:46;;;;;;;5.07;4.10;;;17.50;97.10;;;;;;5031595;28;20445;-68
2021/08/19 23:34:15;;;;;;;5.23;4.53;;;17.50;97.40;;;;;;5031973;28;20488;-68
2021/08/19 23:36:45;;;;;;;6.90;4.23;;;17.50;97.50;;;;;;5032221;28;20445;-68
2021/08/19 23:39:13;;;;;;;5.40;4.13;;;17.50;97.50;;;;;;5031657;28;20438;-68
2021/08/19 23:41:40;;;;;;;6.00;4.20;;;17.60;97.30;;;;;;5031542;28;20444;-67
2021/08/19 23:44:07;;;;;;;6.10;4.37;;;17.60;97.30;;;;;;5032121;28;20573;-68
2021/08/19 23:46:36;;;;;;;6.60;4.87;;;17.60;97.30;;;;;;5031046;28;20503;-68
2021/08/19 23:49:03;;;;;;;7.50;5.70;;;17.50;97.30;;;;;;5030730;28;20437;-68
2021/08/19 23:51:32;;;;;;;7.30;4.87;;;17.60;97.30;;;;;;5031085;28;20893;-74
2021/08/19 23:53:59;;;;;;;7.67;5.00;;;17.60;97.40;;;;;;5030143;28;20465;-68
2021/08/19 23:56:32;;;;;;;7.40;5.63;;;17.50;97.40;;;;;;5031770;28;20442;-68
2021/08/19 23:58:59;;;;;;;6.57;5.20;;;17.50;97.70;;;;;;5031595;28;20479;-68
